Time;durP1;ratioP1;P1;durP2;ratioP2;P2;SDS_P1;SDS_P2;PMS_P1;PMS_P2;Temp;Humidity;BMP_temperature;BMP_pressure;BME280_temperature;BME280_humidity;BME280_pressure;Samples;Min_cycle;Max_cycle;Signal;HPM_P1;HPM_P2
2023/01/05 00:01:37;;;;;;;16.88;10.98;;;;;;;;;;4955787;28;20047;-73
2023/01/05 00:04:04;;;;;;;16.75;10.20;;;;;;;;;;4954562;28;20074;-73
2023/01/05 00:06:30;;;;;;;20.35;9.98;;;;;;;;;;4954680;28;20359;-72
2023/01/05 00:08:57;;;;;;;16.13;9.77;;;;;;;;;;4951782;28;20122;-75
2023/01/05 00:22:43;;;;;;;;;;;;;;;;;;4956900;28;20053;-73
2023/01/05 00:25:12;;;;;;;17.65;8.77;;;;;;;;;;4962813;28;19926;-74
2023/01/05 00:27:40;;;;;;;13.63;8.48;;;;;;;;;;4955627;28;20105;-73
2023/01/05 00:30:07;;;;;;;13.75;8.23;;;;;;;;;;4955787;28;20078;-74
2023/01/05 00:32:33;;;;;;;13.23;7.70;;;;;;;;;;4955076;28;20047;-74
2023/01/05 00:35:00;;;;;;;10.90;7.07;;;;;;;;;;4952769;28;20069;-72
2023/01/05 00:37:30;;;;;;;11.50;7.07;;;;;;;;;;4949755;28;20082;-74
2023/01/05 00:39:55;;;;;;;10.48;6.38;;;;;;;;;;4958714;28;20535;-75
2023/01/05 00:42:22;;;;;;;12.57;6.28;;;;;;;;;;4956994;28;20532;-73
2023/01/05 00:44:48;;;;;;;9.98;6.45;;;;;;;;;;4957782;28;20054;-73
2023/01/05 00:47:14;;;;;;;9.93;5.90;;;;;;;;;;4952613;28;20493;-73
2023/01/05 00:49:40;;;;;;;10.80;5.45;;;;;;;;;;4955121;28;20089;-75
2023/01/05 00:52:07;;;;;;;10.05;5.72;;;;;;;;;;4952260;28;20074;-72
2023/01/05 00:54:33;;;;;;;10.43;5.30;;;;;;;;;;4954102;28;20704;-75
2023/01/05 00:57:00;;;;;;;9.63;5.00;;;;;;;;;;4955487;28;20121;-76
2023/01/05 00:59:26;;;;;;;8.35;5.20;;;;;;;;;;4954132;28;20180;-75
2023/01/05 01:01:53;;;;;;;9.63;5.53;;;;;;;;;;4949573;28;20062;-72
2023/01/05 01:04:19;;;;;;;7.93;4.97;;;;;;;;;;4955337;28;20117;-72
2023/01/05 01:06:46;;;;;;;8.23;4.65;;;;;;;;;;4959748;28;20054;-73
2023/01/05 01:09:12;;;;;;;6.50;4.53;;;;;;;;;;4955357;28;20504;-72
2023/01/05 01:11:39;;;;;;;9.00;4.50;;;;;;;;;;4955953;28;20488;-74
2023/01/05 01:14:06;;;;;;;6.90;4.20;;;;;;;;;;4957194;28;20467;-74
2023/01/05 01:16:33;;;;;;;6.45;4.20;;;;;;;;;;4956628;28;20039;-75
2023/01/05 01:18:59;;;;;;;5.85;4.25;;;;;;;;;;4954863;28;20047;-73
2023/01/05 01:21:25;;;;;;;6.00;4.40;;;;;;;;;;4956784;28;20051;-73
2023/01/05 01:23:51;;;;;;;10.32;4.53;;;;;;;;;;4960633;28;20371;-71
2023/01/05 01:26:17;;;;;;;6.22;4.15;;;;;;;;;;4955547;28;20097;-74
2023/01/05 01:28:46;;;;;;;6.90;4.18;;;;;;;;;;4954095;28;20051;-70
2023/01/05 01:31:12;;;;;;;8.43;3.88;;;;;;;;;;4956867;28;20046;-75
2023/01/05 01:33:39;;;;;;;5.90;3.67;;;;;;;;;;4954298;28;20047;-76
2023/01/05 01:36:06;;;;;;;6.40;3.80;;;;;;;;;;4958390;28;20153;-72
2023/01/05 01:38:33;;;;;;;5.88;3.53;;;;;;;;;;4961015;28;20050;-75
2023/01/05 01:40:59;;;;;;;4.78;3.60;;;;;;;;;;4961908;28;20050;-71
2023/01/05 01:43:45;;;;;;;5.60;3.35;;;;;;;;;;4958597;28;20042;-75
2023/01/05 01:46:13;;;;;;;5.28;3.35;;;;;;;;;;4962629;28;20055;-75
2023/01/05 01:48:45;;;;;;;6.20;3.47;;;;;;;;;;4962307;28;20039;-74
2023/01/05 01:51:21;;;;;;;4.82;3.30;;;;;;;;;;4956576;28;20118;-73
2023/01/05 01:53:52;;;;;;;4.40;3.05;;;;;;;;;;4959678;28;20216;-73
2023/01/05 01:56:21;;;;;;;3.90;2.78;;;;;;;;;;4961549;28;20196;-73
2023/01/05 01:58:48;;;;;;;3.80;2.80;;;;;;;;;;4953867;28;20058;-71
2023/01/05 02:01:14;;;;;;;5.22;2.90;;;;;;;;;;4960749;28;20548;-73
2023/01/05 02:03:40;;;;;;;4.88;3.10;;;;;;;;;;4954917;28;20752;-74
2023/01/05 02:06:06;;;;;;;4.60;2.70;;;;;;;;;;4956246;28;20051;-73
2023/01/05 02:08:33;;;;;;;5.65;3.00;;;;;;;;;;4955135;28;20121;-72
2023/01/05 02:11:11;;;;;;;4.53;3.00;;;;;;;;;;4958278;28;20051;-73
2023/01/05 02:13:46;;;;;;;4.07;2.60;;;;;;;;;;4957831;28;20450;-72
2023/01/05 02:16:23;;;;;;;4.97;2.63;;;;;;;;;;4958849;28;20074;-71
2023/01/05 02:18:58;;;;;;;8.77;2.88;;;;;;;;;;4955830;28;20420;-72
2023/01/05 02:21:43;;;;;;;;;;;;;;;;;;4957535;28;20047;-73
2023/01/05 02:24:15;;;;;;;5.40;2.80;;;;;;;;;;4954477;28;19969;-73
2023/01/05 02:26:50;;;;;;;3.67;2.85;;;;;;;;;;4955242;28;20066;-73
2023/01/05 02:30:01;;;;;;;5.93;2.65;;;;;;;;;;4974434;28;20059;-71
2023/01/05 02:32:55;;;;;;;5.40;2.80;;;;;;;;;;4943523;28;20123;-73
2023/01/05 02:35:59;;;;;;;7.28;2.58;;;;;;;;;;4959613;28;20404;-72
2023/01/05 02:38:49;;;;;;;2.58;2.10;;;;;;;;;;4952732;28;20051;-72
2023/01/05 02:41:30;;;;;;;4.30;2.58;;;;;;;;;;4929280;28;20124;-72
2023/01/05 02:43:57;;;;;;;5.03;2.58;;;;;;;;;;4954316;28;20089;-73
2023/01/05 02:46:23;;;;;;;5.07;2.60;;;;;;;;;;4957523;28;20051;-72
2023/01/05 02:48:52;;;;;;;3.50;2.60;;;;;;;;;;4962535;28;20224;-72
2023/01/05 02:51:23;;;;;;;6.22;2.78;;;;;;;;;;4953673;28;20138;-73
2023/01/05 02:53:57;;;;;;;3.97;2.30;;;;;;;;;;4958867;28;20066;-74
2023/01/05 02:56:29;;;;;;;4.05;2.55;;;;;;;;;;4959501;28;20444;-76
2023/01/05 02:58:59;;;;;;;4.25;2.80;;;;;;;;;;4956377;28;20059;-73
2023/01/05 03:01:33;;;;;;;6.90;2.53;;;;;;;;;;4957200;28;20101;-75
2023/01/05 03:04:22;;;;;;;3.45;2.45;;;;;;;;;;4960570;28;20557;-73
2023/01/05 03:06:56;;;;;;;4.03;2.30;;;;;;;;;;4952565;28;20091;-72
2023/01/05 03:09:26;;;;;;;3.25;2.28;;;;;;;;;;4959100;28;20055;-72
2023/01/05 03:14:58;;;;;;;3.88;2.08;;;;;;;;;;4960564;28;20054;-73
2023/01/05 03:17:32;;;;;;;5.45;2.10;;;;;;;;;;4957812;28;20069;-72
2023/01/05 03:19:59;;;;;;;2.85;1.90;;;;;;;;;;4954757;28;20389;-72
2023/01/05 03:36:58;;;;;;;2.65;1.70;;;;;;;;;;4956252;28;20062;-70
2023/01/05 03:39:26;;;;;;;2.13;1.70;;;;;;;;;;4959981;28;20528;-72
2023/01/05 03:41:53;;;;;;;2.40;1.60;;;;;;;;;;4955281;28;20141;-70
2023/01/05 03:44:19;;;;;;;2.72;1.80;;;;;;;;;;4950659;28;20703;-73
2023/01/05 03:46:45;;;;;;;2.35;1.67;;;;;;;;;;4953665;28;20058;-72
2023/01/05 03:49:12;;;;;;;2.17;1.70;;;;;;;;;;4970871;28;20125;-72
2023/01/05 03:51:38;;;;;;;2.75;1.45;;;;;;;;;;4948600;28;20051;-74
2023/01/05 03:54:04;;;;;;;1.65;1.27;;;;;;;;;;4959552;28;20042;-71
2023/01/05 03:56:30;;;;;;;1.83;1.50;;;;;;;;;;4956157;28;20043;-71
2023/01/05 03:58:56;;;;;;;2.63;1.73;;;;;;;;;;4958960;28;20077;-72
2023/01/05 04:01:22;;;;;;;2.72;1.60;;;;;;;;;;4954074;28;20483;-73
2023/01/05 04:03:49;;;;;;;2.67;1.70;;;;;;;;;;4959880;28;20058;-73
2023/01/05 04:06:14;;;;;;;1.95;1.60;;;;;;;;;;4958867;28;20046;-71
2023/01/05 04:08:40;;;;;;;2.42;1.50;;;;;;;;;;4961831;28;20069;-72
2023/01/05 04:11:21;;;;;;;6.70;1.65;;;;;;;;;;4953171;28;20466;-71
2023/01/05 04:13:47;;;;;;;2.22;1.50;;;;;;;;;;4960257;28;20047;-73
2023/01/05 04:16:13;;;;;;;2.10;1.40;;;;;;;;;;4954184;28;20044;-71
2023/01/05 04:18:39;;;;;;;2.30;1.40;;;;;;;;;;4956543;28;20097;-73
2023/01/05 04:21:06;;;;;;;2.17;1.40;;;;;;;;;;4959314;28;20083;-74
2023/01/05 04:23:32;;;;;;;2.88;1.50;;;;;;;;;;4957527;28;20548;-73
2023/01/05 04:25:58;;;;;;;2.55;1.40;;;;;;;;;;4948843;28;20133;-72
2023/01/05 04:28:24;;;;;;;1.95;1.30;;;;;;;;;;4958850;28;20057;-71
2023/01/05 04:30:52;;;;;;;2.70;1.50;;;;;;;;;;4954231;28;20047;-74
2023/01/05 04:33:19;;;;;;;1.63;1.20;;;;;;;;;;4954228;28;20492;-71
2023/01/05 04:35:45;;;;;;;2.40;1.55;;;;;;;;;;4951486;28;20050;-72
2023/01/05 04:38:12;;;;;;;2.22;1.40;;;;;;;;;;4955107;28;20062;-72
2023/01/05 04:40:37;;;;;;;7.45;1.70;;;;;;;;;;4949837;28;20491;-72
2023/01/05 04:43:29;;;;;;;2.08;1.50;;;;;;;;;;4954199;28;20046;-75
2023/01/05 04:45:55;;;;;;;2.42;1.40;;;;;;;;;;4951541;28;20058;-73
2023/01/05 04:48:21;;;;;;;2.65;1.70;;;;;;;;;;4956645;28;20054;-72
2023/01/05 04:50:54;;;;;;;3.15;2.00;;;;;;;;;;4955391;28;20184;-74
2023/01/05 04:53:22;;;;;;;2.72;2.08;;;;;;;;;;4952252;28;20057;-72
2023/01/05 04:55:47;;;;;;;3.85;1.73;;;;;;;;;;4956336;28;20058;-73
2023/01/05 04:58:13;;;;;;;4.75;2.25;;;;;;;;;;4952104;28;20363;-73
2023/01/05 05:00:39;;;;;;;4.63;2.30;;;;;;;;;;4950054;28;20047;-72
2023/01/05 05:03:06;;;;;;;4.82;2.58;;;;;;;;;;4950022;28;20061;-74
2023/01/05 05:05:32;;;;;;;3.50;2.65;;;;;;;;;;4951973;28;20146;-70
2023/01/05 05:07:58;;;;;;;4.35;2.60;;;;;;;;;;4952190;28;20540;-72
2023/01/05 05:10:24;;;;;;;4.55;2.50;;;;;;;;;;4949649;28;20039;-72
2023/01/05 05:12:50;;;;;;;4.88;2.60;;;;;;;;;;4950140;28;20142;-72
2023/01/05 05:15:16;;;;;;;3.40;2.35;;;;;;;;;;4947473;28;20480;-72
2023/01/05 05:17:42;;;;;;;3.92;2.25;;;;;;;;;;4950953;28;20532;-73
2023/01/05 05:20:08;;;;;;;5.75;2.55;;;;;;;;;;4949773;28;20043;-72
2023/01/05 05:22:34;;;;;;;5.22;2.13;;;;;;;;;;4951050;28;20047;-71
2023/01/05 05:25:00;;;;;;;5.03;2.22;;;;;;;;;;4952578;28;20047;-72
2023/01/05 05:27:26;;;;;;;4.65;2.00;;;;;;;;;;4950041;28;20111;-71
2023/01/05 05:29:52;;;;;;;2.97;1.90;;;;;;;;;;4951080;28;20059;-70
2023/01/05 05:32:18;;;;;;;6.75;2.47;;;;;;;;;;4950416;28;20165;-72
2023/01/05 05:34:44;;;;;;;4.80;2.67;;;;;;;;;;4958334;28;20573;-73
2023/01/05 05:37:10;;;;;;;4.85;2.90;;;;;;;;;;4956236;28;20056;-73
2023/01/05 05:39:35;;;;;;;8.68;3.20;;;;;;;;;;4955574;28;20446;-73
2023/01/05 05:42:02;;;;;;;8.10;3.55;;;;;;;;;;4954958;28;20113;-72
2023/01/05 05:44:27;;;;;;;6.57;3.80;;;;;;;;;;4955580;28;20335;-72
2023/01/05 05:46:54;;;;;;;7.15;3.42;;;;;;;;;;4952156;28;20051;-71
2023/01/05 05:49:19;;;;;;;4.72;3.22;;;;;;;;;;4949861;28;20511;-72
2023/01/05 05:51:45;;;;;;;7.20;3.60;;;;;;;;;;4949493;28;20057;-72
2023/01/05 05:54:11;;;;;;;11.05;3.38;;;;;;;;;;4951562;28;20055;-73
2023/01/05 05:56:37;;;;;;;6.90;3.20;;;;;;;;;;4956510;28;20054;-73
2023/01/05 05:59:03;;;;;;;5.75;3.25;;;;;;;;;;4954271;28;20054;-73
2023/01/05 06:01:29;;;;;;;4.97;3.22;;;;;;;;;;4950677;28;20054;-72
2023/01/05 06:03:55;;;;;;;6.60;2.60;;;;;;;;;;4950748;28;20050;-71
2023/01/05 06:06:21;;;;;;;5.95;3.42;;;;;;;;;;4949343;28;20039;-72
2023/01/05 06:08:47;;;;;;;7.35;3.30;;;;;;;;;;4950403;28;20054;-71
2023/01/05 06:11:13;;;;;;;10.40;3.63;;;;;;;;;;4950357;28;20141;-68
2023/01/05 06:13:38;;;;;;;6.00;3.30;;;;;;;;;;4961732;28;20508;-71
2023/01/05 06:16:05;;;;;;;4.50;3.17;;;;;;;;;;4950465;28;20066;-70
2023/01/05 06:18:30;;;;;;;5.85;3.33;;;;;;;;;;4961069;28;20532;-74
2023/01/05 06:20:56;;;;;;;6.10;2.90;;;;;;;;;;4959789;28;20109;-72
2023/01/05 06:23:22;;;;;;;5.03;2.85;;;;;;;;;;4962617;28;20455;-71
2023/01/05 06:25:48;;;;;;;4.93;3.40;;;;;;;;;;4961315;28;20050;-72
2023/01/05 06:28:14;;;;;;;6.00;2.95;;;;;;;;;;4956990;28;20066;-73
2023/01/05 06:30:40;;;;;;;6.00;3.05;;;;;;;;;;4960688;28;20097;-70
2023/01/05 06:33:06;;;;;;;16.08;4.82;;;;;;;;;;4955557;28;20050;-71
2023/01/05 06:35:32;;;;;;;11.02;3.08;;;;;;;;;;4963282;28;20328;-72
2023/01/05 06:37:58;;;;;;;7.70;3.50;;;;;;;;;;4959613;28;20133;-73
2023/01/05 06:40:24;;;;;;;7.30;3.40;;;;;;;;;;4956564;28;20046;-70
2023/01/05 06:42:50;;;;;;;7.43;3.88;;;;;;;;;;4960828;28;20047;-72
2023/01/05 06:45:16;;;;;;;9.80;3.70;;;;;;;;;;4953826;28;20270;-72
2023/01/05 06:47:43;;;;;;;6.63;3.95;;;;;;;;;;4954754;28;20054;-72
2023/01/05 06:50:09;;;;;;;7.35;3.53;;;;;;;;;;4959012;28;20158;-71
2023/01/05 06:52:38;;;;;;;7.95;3.30;;;;;;;;;;4955557;28;20043;-70
2023/01/05 06:55:10;;;;;;;7.28;3.90;;;;;;;;;;4958014;28;20039;-70
2023/01/05 06:57:36;;;;;;;8.55;3.42;;;;;;;;;;4954410;28;20130;-71
2023/01/05 07:00:05;;;;;;;8.18;3.65;;;;;;;;;;4953652;28;20061;-71
2023/01/05 07:02:31;;;;;;;7.68;3.20;;;;;;;;;;4948717;28;20412;-72
2023/01/05 07:04:57;;;;;;;14.77;3.92;;;;;;;;;;4957539;28;20086;-72
2023/01/05 07:07:23;;;;;;;7.20;3.50;;;;;;;;;;4948481;28;20186;-72
2023/01/05 07:09:49;;;;;;;8.45;3.65;;;;;;;;;;4951101;28;20059;-73
2023/01/05 07:12:16;;;;;;;7.38;3.63;;;;;;;;;;4954472;28;20469;-69
2023/01/05 07:14:42;;;;;;;11.98;4.47;;;;;;;;;;4948015;28;20162;-71
2023/01/05 07:17:08;;;;;;;8.07;4.43;;;;;;;;;;4951533;28;20319;-76
2023/01/05 07:19:34;;;;;;;10.32;4.55;;;;;;;;;;4950514;28;20540;-73
2023/01/05 07:22:00;;;;;;;8.77;4.07;;;;;;;;;;4950227;28;20050;-75
2023/01/05 07:24:26;;;;;;;12.70;4.53;;;;;;;;;;4942408;28;20062;-74
2023/01/05 07:26:52;;;;;;;7.55;4.68;;;;;;;;;;4953477;28;20392;-75
2023/01/05 07:29:18;;;;;;;9.27;4.55;;;;;;;;;;4952142;28;20050;-74
2023/01/05 07:31:46;;;;;;;11.27;4.85;;;;;;;;;;4951856;28;20043;-74
2023/01/05 07:34:12;;;;;;;13.00;4.90;;;;;;;;;;4949404;28;20712;-71
2023/01/05 07:36:38;;;;;;;11.00;4.95;;;;;;;;;;4950783;28;20189;-77
2023/01/05 07:39:04;;;;;;;13.02;4.97;;;;;;;;;;4954074;28;20379;-74
2023/01/05 07:41:30;;;;;;;8.80;4.72;;;;;;;;;;4953045;28;20046;-73
2023/01/05 07:43:56;;;;;;;11.85;5.22;;;;;;;;;;4951419;28;20118;-73
2023/01/05 07:46:24;;;;;;;12.40;5.45;;;;;;;;;;4952753;28;20043;-74
2023/01/05 07:48:50;;;;;;;12.90;4.63;;;;;;;;;;4954441;28;20062;-73
2023/01/05 07:51:17;;;;;;;12.45;5.38;;;;;;;;;;4954257;28;20046;-74
2023/01/05 07:53:43;;;;;;;13.40;6.65;;;;;;;;;;4951708;28;20054;-73
2023/01/05 07:56:10;;;;;;;17.73;6.80;;;;;;;;;;4957775;28;20062;-71
2023/01/05 07:58:36;;;;;;;17.83;7.32;;;;;;;;;;4950195;28;20054;-71
2023/01/05 08:01:04;;;;;;;22.33;7.70;;;;;;;;;;4952534;28;20513;-73
2023/01/05 08:03:31;;;;;;;21.10;8.32;;;;;;;;;;4950678;28;20050;-75
2023/01/05 08:05:57;;;;;;;28.40;8.73;;;;;;;;;;4937162;28;20093;-73
2023/01/05 08:08:23;;;;;;;22.20;8.00;;;;;;;;;;4948089;28;20125;-72
2023/01/05 08:10:49;;;;;;;19.25;7.93;;;;;;;;;;4951232;28;20052;-76
2023/01/05 08:15:59;;;;;;;23.80;8.25;;;;;;;;;;4950603;28;20044;-75
2023/01/05 08:18:26;;;;;;;17.83;7.78;;;;;;;;;;4945845;28;20063;-73
2023/01/05 08:20:55;;;;;;;20.90;8.30;;;;;;;;;;4943420;28;20047;-73
2023/01/05 08:23:23;;;;;;;20.70;9.30;;;;;;;;;;4948238;28;20055;-74
2023/01/05 08:25:48;;;;;;;20.00;9.18;;;;;;;;;;4958956;28;20125;-79
2023/01/05 08:28:15;;;;;;;19.83;8.77;;;;;;;;;;4953022;28;20102;-76
2023/01/05 08:30:41;;;;;;;22.30;9.65;;;;;;;;;;4956235;28;20043;-78
2023/01/05 08:33:07;;;;;;;27.98;9.30;;;;;;;;;;4950685;28;20051;-77
2023/01/05 08:35:33;;;;;;;23.42;9.10;;;;;;;;;;4950309;28;20055;-72
2023/01/05 08:37:59;;;;;;;20.25;9.30;;;;;;;;;;4953519;28;20074;-71
2023/01/05 08:40:25;;;;;;;25.15;9.50;;;;;;;;;;4953270;28;20053;-72
2023/01/05 08:42:51;;;;;;;18.35;8.82;;;;;;;;;;4954803;28;20442;-73
2023/01/05 08:45:17;;;;;;;21.02;9.15;;;;;;;;;;4951301;28;20039;-72
2023/01/05 08:47:43;;;;;;;23.50;9.93;;;;;;;;;;4949737;28;20318;-72
2023/01/05 08:50:10;;;;;;;21.70;9.93;;;;;;;;;;4954220;28;20043;-75
2023/01/05 08:52:37;;;;;;;29.45;11.98;;;;;;;;;;4955988;28;20047;-74
2023/01/05 08:55:05;;;;;;;23.95;11.75;;;;;;;;;;4949045;28;20035;-74
2023/01/05 08:57:31;;;;;;;23.05;10.40;;;;;;;;;;4953377;28;20316;-72
2023/01/05 08:59:57;;;;;;;27.30;10.43;;;;;;;;;;4951286;28;20267;-71
2023/01/05 09:02:23;;;;;;;26.02;10.73;;;;;;;;;;4951994;28;20398;-69
2023/01/05 09:04:49;;;;;;;21.85;9.88;;;;;;;;;;4952726;28;20081;-76
2023/01/05 09:07:15;;;;;;;21.42;11.63;;;;;;;;;;4951835;28;20113;-77
2023/01/05 09:09:41;;;;;;;24.42;11.43;;;;;;;;;;4957577;28;20042;-71
2023/01/05 09:12:07;;;;;;;23.30;12.60;;;;;;;;;;4954332;28;20093;-70
2023/01/05 09:14:33;;;;;;;27.13;13.27;;;;;;;;;;4955025;28;20078;-74
2023/01/05 09:16:59;;;;;;;24.10;11.00;;;;;;;;;;4963093;28;20145;-76
2023/01/05 09:19:25;;;;;;;20.92;10.40;;;;;;;;;;4956224;28;20461;-75
2023/01/05 09:21:52;;;;;;;18.77;10.27;;;;;;;;;;4950723;28;20734;-72
2023/01/05 09:24:18;;;;;;;23.55;8.40;;;;;;;;;;4957945;28;20087;-74
2023/01/05 09:26:45;;;;;;;13.65;8.93;;;;;;;;;;4962635;28;20125;-73
2023/01/05 09:29:11;;;;;;;11.77;7.43;;;;;;;;;;4963039;28;20058;-74
2023/01/05 09:31:40;;;;;;;13.70;7.22;;;;;;;;;;4955307;28;20054;-74
2023/01/05 09:34:05;;;;;;;11.77;6.80;;;;;;;;;;4953388;28;20559;-73
2023/01/05 09:36:32;;;;;;;10.35;6.63;;;;;;;;;;4963649;28;20477;-74
2023/01/05 09:38:58;;;;;;;10.00;6.10;;;;;;;;;;4957457;28;20097;-75
2023/01/05 09:41:37;;;;;;;10.65;6.38;;;;;;;;;;4964453;28;20123;-77
2023/01/05 09:44:10;;;;;;;20.17;6.07;;;;;;;;;;4963961;28;20074;-77
2023/01/05 09:46:40;;;;;;;17.67;6.32;;;;;;;;;;4963211;28;20073;-71
2023/01/05 09:49:12;;;;;;;10.05;6.35;;;;;;;;;;4967369;28;20091;-75
2023/01/05 09:51:38;;;;;;;20.33;6.53;;;;;;;;;;4955154;28;20046;-74
2023/01/05 09:54:04;;;;;;;12.85;6.78;;;;;;;;;;4967350;28;20061;-78
2023/01/05 09:56:40;;;;;;;11.10;6.03;;;;;;;;;;4951241;28;20066;-75
2023/01/05 09:59:29;;;;;;;15.10;6.95;;;;;;;;;;4963616;28;20043;-76
2023/01/05 10:01:58;;;;;;;10.68;6.32;;;;;;;;;;4963015;28;20054;-79
2023/01/05 10:04:27;;;;;;;14.98;6.85;;;;;;;;;;4968280;28;20050;-76
2023/01/05 10:06:58;;;;;;;12.95;6.78;;;;;;;;;;4968050;28;20062;-75
2023/01/05 10:09:29;;;;;;;10.95;7.07;;;;;;;;;;4967526;28;20082;-78
2023/01/05 10:15:23;;;;;;;12.60;6.95;;;;;;;;;;4959370;28;20473;-77
2023/01/05 10:17:49;;;;;;;11.15;6.72;;;;;;;;;;4965588;28;20055;-76
2023/01/05 10:20:34;;;;;;;10.90;6.88;;;;;;;;;;4962005;28;20402;-76
2023/01/05 10:23:09;;;;;;;18.15;6.90;;;;;;;;;;4963635;28;20081;-76
2023/01/05 10:25:44;;;;;;;12.05;6.45;;;;;;;;;;4961547;28;20046;-78
2023/01/05 10:28:36;;;;;;;11.25;6.88;;;;;;;;;;4966988;28;20054;-75
2023/01/05 10:31:31;;;;;;;15.02;7.60;;;;;;;;;;4962627;28;20051;-76
2023/01/05 10:34:20;;;;;;;13.25;7.15;;;;;;;;;;4968133;28;20575;-75
2023/01/05 10:37:19;;;;;;;10.80;6.63;;;;;;;;;;4964474;28;20101;-77
2023/01/05 10:39:48;;;;;;;10.50;6.78;;;;;;;;;;4965501;28;20058;-77
2023/01/05 10:42:39;;;;;;;13.82;8.07;;;;;;;;;;4962877;28;20043;-78
2023/01/05 10:45:10;;;;;;;16.20;8.05;;;;;;;;;;4957335;28;20397;-75
2023/01/05 10:47:37;;;;;;;15.05;7.95;;;;;;;;;;4962652;28;20079;-80
2023/01/05 10:50:21;;;;;;;24.13;8.73;;;;;;;;;;4963064;28;20047;-78
2023/01/05 10:52:47;;;;;;;21.45;9.73;;;;;;;;;;4958341;28;20461;-77
2023/01/05 10:55:16;;;;;;;20.23;8.70;;;;;;;;;;4965926;28;20054;-76
2023/01/05 10:57:42;;;;;;;17.13;9.07;;;;;;;;;;4964301;28;20083;-76
2023/01/05 11:00:17;;;;;;;14.80;7.78;;;;;;;;;;4964729;28;20050;-76
2023/01/05 11:02:49;;;;;;;;;;;;;;;;;;4963817;28;20045;-75
2023/01/05 11:05:26;;;;;;;17.33;8.57;;;;;;;;;;4951815;28;20379;-78
2023/01/05 11:07:55;;;;;;;12.73;8.13;;;;;;;;;;4957886;28;20062;-71
2023/01/05 11:10:28;;;;;;;17.42;8.10;;;;;;;;;;4965000;28;20050;-72
2023/01/05 11:13:01;;;;;;;18.58;9.80;;;;;;;;;;4960768;28;20047;-76
2023/01/05 11:15:30;;;;;;;12.95;7.82;;;;;;;;;;4964606;28;20344;-78
2023/01/05 11:17:57;;;;;;;13.27;7.55;;;;;;;;;;4963519;28;20050;-77
2023/01/05 11:20:29;;;;;;;16.77;8.20;;;;;;;;;;4955442;28;20051;-76
2023/01/05 11:22:54;;;;;;;13.07;7.65;;;;;;;;;;4961886;28;20058;-76
2023/01/05 11:25:32;;;;;;;10.80;6.88;;;;;;;;;;4965246;28;20055;-72
2023/01/05 11:28:11;;;;;;;9.48;6.75;;;;;;;;;;4956388;28;20043;-77
2023/01/05 11:30:45;;;;;;;9.68;6.20;;;;;;;;;;4953577;28;20091;-77
2023/01/05 11:33:23;;;;;;;15.73;6.55;;;;;;;;;;4957018;28;20043;-74
2023/01/05 11:35:49;;;;;;;10.48;5.88;;;;;;;;;;4955424;28;20097;-71
2023/01/05 11:38:25;;;;;;;10.50;5.47;;;;;;;;;;4954956;28;20138;-76
2023/01/05 11:40:52;;;;;;;10.68;5.55;;;;;;;;;;4956663;28;20047;-75
2023/01/05 11:43:20;;;;;;;9.27;5.70;;;;;;;;;;4953402;28;20047;-72
2023/01/05 11:45:51;;;;;;;11.90;6.00;;;;;;;;;;4955114;28;20049;-73
2023/01/05 11:48:22;;;;;;;10.20;6.03;;;;;;;;;;4950610;28;20412;-76
2023/01/05 11:50:56;;;;;;;19.00;6.18;;;;;;;;;;4948942;28;20811;-74
2023/01/05 11:53:38;;;;;;;17.15;8.25;;;;;;;;;;4948633;28;20138;-75
2023/01/05 11:56:15;;;;;;;17.42;9.43;;;;;;;;;;4955562;28;20053;-75
2023/01/05 11:58:44;;;;;;;18.27;7.90;;;;;;;;;;4952103;28;20066;-75
2023/01/05 12:01:39;;;;;;;12.88;6.65;;;;;;;;;;4959045;28;20590;-75
2023/01/05 12:04:32;;;;;;;15.25;6.38;;;;;;;;;;4949178;28;20117;-79
2023/01/05 12:07:09;;;;;;;10.98;4.93;;;;;;;;;;4949035;28;20175;-74
2023/01/05 12:09:36;;;;;;;9.00;4.35;;;;;;;;;;4954088;28;20042;-75
2023/01/05 12:12:17;;;;;;;15.43;4.90;;;;;;;;;;4954043;28;20457;-75
2023/01/05 12:15:04;;;;;;;7.40;4.65;;;;;;;;;;4951344;28;20171;-75
2023/01/05 12:18:01;;;;;;;9.10;4.00;;;;;;;;;;4954933;28;20054;-75
2023/01/05 12:20:40;;;;;;;11.40;5.10;;;;;;;;;;4967756;28;20054;-71
2023/01/05 12:23:22;;;;;;;12.05;5.22;;;;;;;;;;4955832;28;20050;-74
2023/01/05 12:26:00;;;;;;;6.57;4.10;;;;;;;;;;4950661;28;20054;-75
2023/01/05 12:28:48;;;;;;;10.40;5.50;;;;;;;;;;4955425;28;20059;-76
2023/01/05 12:31:41;;;;;;;13.70;5.88;;;;;;;;;;4950684;28;20055;-76
2023/01/05 12:34:30;;;;;;;12.23;6.13;;;;;;;;;;4952054;28;20054;-74
2023/01/05 12:37:19;;;;;;;12.65;6.93;;;;;;;;;;4950950;28;20106;-77
2023/01/05 12:40:07;;;;;;;12.73;8.65;;;;;;;;;;4950381;28;20377;-75
2023/01/05 12:42:54;;;;;;;17.92;9.13;;;;;;;;;;4955372;28;21105;-75
2023/01/05 12:45:40;;;;;;;17.48;10.52;;;;;;;;;;4951181;28;20050;-75
2023/01/05 12:48:28;;;;;;;16.27;10.52;;;;;;;;;;4923305;28;20051;-75
2023/01/05 12:51:09;;;;;;;14.88;10.38;;;;;;;;;;4954207;28;20077;-75
2023/01/05 12:53:39;;;;;;;19.10;10.05;;;;;;;;;;4957249;28;20193;-77
2023/01/05 12:56:17;;;;;;;16.40;9.75;;;;;;;;;;4949735;28;20109;-76
2023/01/05 12:58:54;;;;;;;16.35;8.27;;;;;;;;;;4947185;28;20047;-74
2023/01/05 13:01:24;;;;;;;22.55;10.45;;;;;;;;;;4949582;28;20537;-74
2023/01/05 13:04:36;;;;;;;17.55;10.40;;;;;;;;;;4948004;28;20179;-74
2023/01/05 13:07:08;;;;;;;17.77;9.52;;;;;;;;;;4876742;29;20060;-75
2023/01/05 13:09:36;;;;;;;17.45;10.27;;;;;;;;;;4871530;29;20049;-73
2023/01/05 13:12:06;;;;;;;18.80;9.07;;;;;;;;;;4874888;29;20251;-75
2023/01/05 13:14:40;;;;;;;13.70;8.35;;;;;;;;;;4869895;29;20057;-75
2023/01/05 13:17:30;;;;;;;17.60;7.55;;;;;;;;;;4873857;29;20874;-73
2023/01/05 13:20:04;;;;;;;19.30;7.10;;;;;;;;;;4876230;29;20143;-74
2023/01/05 13:22:35;;;;;;;15.18;6.93;;;;;;;;;;4873824;29;20065;-75
2023/01/05 13:25:13;;;;;;;18.30;7.25;;;;;;;;;;4876351;29;20717;-74
2023/01/05 13:27:39;;;;;;;12.07;7.15;;;;;;;;;;4879006;29;20068;-76
2023/01/05 13:30:06;;;;;;;11.27;6.72;;;;;;;;;;4875974;29;20072;-75
2023/01/05 13:32:41;;;;;;;13.40;6.68;;;;;;;;;;4875479;29;20049;-74
2023/01/05 13:35:07;;;;;;;10.77;6.38;;;;;;;;;;4874272;29;20060;-77
2023/01/05 13:37:34;;;;;;;12.50;5.85;;;;;;;;;;4860199;29;20057;-79
2023/01/05 13:40:34;;;;;;;9.77;5.20;;;;;;;;;;4883569;28;20048;-77
2023/01/05 13:43:17;;;;;;;9.70;5.50;;;;;;;;;;4953639;28;20055;-75
2023/01/05 13:46:07;;;;;;;8.35;4.35;;;;;;;;;;4955413;28;20117;-74
2023/01/05 13:48:51;;;;;;;10.02;4.40;;;;;;;;;;4954688;28;20062;-75
2023/01/05 13:51:45;;;;;;;11.02;4.20;;;;;;;;;;4953086;28;20043;-78
2023/01/05 13:54:26;;;;;;;8.82;3.60;;;;;;;;;;4952534;28;20055;-74
2023/01/05 13:56:52;;;;;;;6.70;4.00;;;;;;;;;;4948306;28;20239;-74
2023/01/05 13:59:29;;;;;;;7.30;3.90;;;;;;;;;;4951955;28;20042;-75
2023/01/05 14:01:59;;;;;;;8.25;4.50;;;;;;;;;;4951812;28;20043;-76
2023/01/05 14:04:28;;;;;;;8.65;5.07;;;;;;;;;;4953706;28;20094;-74
2023/01/05 14:06:59;;;;;;;6.82;4.50;;;;;;;;;;4952210;28;20504;-76
2023/01/05 14:09:34;;;;;;;8.38;5.22;;;;;;;;;;4960724;28;20055;-75
2023/01/05 14:12:40;;;;;;;8.52;4.80;;;;;;;;;;4952564;28;20050;-76
2023/01/05 14:15:11;;;;;;;11.65;5.10;;;;;;;;;;4954605;28;20050;-75
2023/01/05 14:17:56;;;;;;;12.77;5.18;;;;;;;;;;4952651;28;20039;-75
2023/01/05 14:20:34;;;;;;;10.43;5.20;;;;;;;;;;4953613;28;20047;-75
2023/01/05 14:23:24;;;;;;;11.70;5.05;;;;;;;;;;4949671;28;20046;-75
2023/01/05 14:25:53;;;;;;;13.80;4.82;;;;;;;;;;4931414;28;20055;-76
2023/01/05 14:28:34;;;;;;;9.90;4.80;;;;;;;;;;4950770;28;20496;-74
2023/01/05 14:31:26;;;;;;;9.00;4.68;;;;;;;;;;4957217;28;20051;-73
2023/01/05 14:34:06;;;;;;;9.18;4.40;;;;;;;;;;4948242;28;20080;-75
2023/01/05 14:36:40;;;;;;;9.57;5.30;;;;;;;;;;4958535;28;20100;-74
2023/01/05 14:39:19;;;;;;;14.52;5.13;;;;;;;;;;4953780;28;20348;-74
2023/01/05 14:42:12;;;;;;;12.60;5.68;;;;;;;;;;4953779;28;20778;-76
2023/01/05 14:45:25;;;;;;;10.45;4.80;;;;;;;;;;4954077;28;20063;-74
2023/01/05 14:47:56;;;;;;;9.63;4.88;;;;;;;;;;4929842;28;20070;-73
2023/01/05 14:50:33;;;;;;;7.57;5.03;;;;;;;;;;4955397;28;20043;-73
2023/01/05 14:53:19;;;;;;;9.23;5.28;;;;;;;;;;4963988;28;20470;-74
2023/01/05 14:55:51;;;;;;;10.32;6.10;;;;;;;;;;4959853;28;20570;-74
2023/01/05 14:58:35;;;;;;;10.10;6.00;;;;;;;;;;4956537;28;20073;-74
2023/01/05 15:01:26;;;;;;;10.48;6.35;;;;;;;;;;4952094;28;20539;-74
2023/01/05 15:03:54;;;;;;;14.18;7.85;;;;;;;;;;4959797;28;20054;-72
2023/01/05 15:06:36;;;;;;;10.23;7.28;;;;;;;;;;4953108;28;20078;-73
2023/01/05 15:09:23;;;;;;;15.70;8.55;;;;;;;;;;4961319;28;20062;-73
2023/01/05 15:12:16;;;;;;;18.38;10.45;;;;;;;;;;4961920;28;20058;-75
2023/01/05 15:14:45;;;;;;;14.55;8.20;;;;;;;;;;4961887;28;20047;-76
2023/01/05 15:17:13;;;;;;;12.07;7.55;;;;;;;;;;4950128;28;20043;-74
2023/01/05 15:20:00;;;;;;;15.60;9.13;;;;;;;;;;4957727;28;20515;-73
2023/01/05 15:22:47;;;;;;;16.58;8.60;;;;;;;;;;4952805;28;20043;-73
2023/01/05 15:25:37;;;;;;;12.43;8.10;;;;;;;;;;4952880;28;20063;-75
2023/01/05 15:28:24;;;;;;;11.48;7.88;;;;;;;;;;4960846;28;20047;-76
2023/01/05 15:30:59;;;;;;;15.55;8.82;;;;;;;;;;4959230;28;20065;-73
2023/01/05 15:33:48;;;;;;;12.52;7.72;;;;;;;;;;4957808;28;20344;-74
2023/01/05 15:36:31;;;;;;;11.75;8.07;;;;;;;;;;4958400;28;20535;-74
2023/01/05 15:38:57;;;;;;;14.10;8.60;;;;;;;;;;4954554;28;20043;-73